createdAt,value
2023-04-19T00:00:43.705Z,10.10
2023-04-19T00:02:49.589Z,10.06
2023-04-19T00:04:53.529Z,10.09
2023-04-19T00:06:57.042Z,10.02
2023-04-19T00:08:59.757Z,10.06
2023-04-19T00:11:03.740Z,10.06
2023-04-19T00:13:06.493Z,10.09
2023-04-19T00:15:09.332Z,10.05
2023-04-19T00:17:12.376Z,10.04
2023-04-19T00:19:15.000Z,10.03
2023-04-19T00:21:17.744Z,10.04
2023-04-19T00:23:20.672Z,10.06
2023-04-19T00:25:23.242Z,10.07
2023-04-19T00:27:25.942Z,10.09
2023-04-19T00:29:28.618Z,10.11
2023-04-19T00:31:31.377Z,10.11
2023-04-19T00:33:34.148Z,10.11
2023-04-19T00:35:36.781Z,10.11
2023-04-19T00:37:39.420Z,10.12
2023-04-19T00:39:42.078Z,10.14
2023-04-19T00:41:44.673Z,10.10
2023-04-19T00:43:47.328Z,10.12
2023-04-19T00:45:50.175Z,10.09
2023-04-19T00:47:54.078Z,10.12
2023-04-19T00:49:57.032Z,10.12
2023-04-19T00:51:59.696Z,10.12
2023-04-19T00:54:05.710Z,10.12
2023-04-19T00:56:09.719Z,10.08
2023-04-19T00:58:12.373Z,10.03
2023-04-19T01:00:15.302Z,10.05
2023-04-19T01:02:18.522Z,10.01
2023-04-19T01:04:23.230Z,9.99
2023-04-19T01:06:28.002Z,10.01
2023-04-19T01:08:30.966Z,10.04
2023-04-19T01:10:33.597Z,10.03
2023-04-19T01:12:36.334Z,10.05
2023-04-19T01:14:40.571Z,10.06
2023-04-19T01:16:43.427Z,10.03
2023-04-19T01:18:46.066Z,10.04
2023-04-19T01:20:48.711Z,10.01
2023-04-19T01:22:51.402Z,9.98
2023-04-19T01:24:54.282Z,9.98
2023-04-19T01:26:56.817Z,9.97
2023-04-19T01:28:59.430Z,9.99
2023-04-19T01:31:02.114Z,9.95
2023-04-19T01:33:04.784Z,9.94
2023-04-19T01:35:07.728Z,9.93
2023-04-19T01:37:10.387Z,9.93
2023-04-19T01:39:13.050Z,9.92
2023-04-19T01:41:16.045Z,9.90
2023-04-19T01:43:19.153Z,9.89
2023-04-19T01:45:21.882Z,9.90
2023-04-19T01:47:25.209Z,9.91
2023-04-19T01:49:27.836Z,9.93
2023-04-19T01:51:30.722Z,9.91
2023-04-19T01:53:33.375Z,9.91
2023-04-19T01:55:35.939Z,9.91
2023-04-19T01:57:38.516Z,9.91
2023-04-19T01:59:41.137Z,9.88
2023-04-19T02:01:43.909Z,9.88
2023-04-19T02:03:46.841Z,9.85
2023-04-19T02:05:49.729Z,9.88
2023-04-19T02:07:52.278Z,9.88
2023-04-19T02:09:55.625Z,9.89
2023-04-19T02:11:58.501Z,9.88
2023-04-19T02:14:01.202Z,9.94
2023-04-19T02:16:06.152Z,9.95
2023-04-19T02:18:08.732Z,9.95
2023-04-19T02:20:11.512Z,9.99
2023-04-19T02:22:14.204Z,10.01
2023-04-19T02:24:17.250Z,10.01
2023-04-19T02:26:20.686Z,10.04
2023-04-19T02:28:23.411Z,10.02
2023-04-19T02:30:26.139Z,10.05
2023-04-19T02:32:28.818Z,10.09
2023-04-19T02:34:31.533Z,10.09
2023-04-19T02:36:34.127Z,10.08
2023-04-19T02:38:36.739Z,10.10
2023-04-19T02:40:39.415Z,10.11
2023-04-19T02:42:41.982Z,10.14
2023-04-19T02:44:44.579Z,10.11
2023-04-19T02:46:50.851Z,10.15
2023-04-19T02:48:53.495Z,10.17
2023-04-19T02:50:56.111Z,10.13
2023-04-19T02:52:58.945Z,10.15
2023-04-19T02:55:01.570Z,10.21
2023-04-19T02:57:05.798Z,10.19
2023-04-19T02:59:08.396Z,10.22
2023-04-19T03:01:11.258Z,10.27
2023-04-19T03:03:13.990Z,10.26
2023-04-19T03:05:16.664Z,10.30
2023-04-19T03:07:19.371Z,10.33
2023-04-19T03:09:21.922Z,10.35
2023-04-19T03:11:25.138Z,10.34
2023-04-19T03:13:27.824Z,10.35
2023-04-19T03:15:30.427Z,10.39
2023-04-19T03:17:33.130Z,10.38
2023-04-19T03:19:35.797Z,10.36
2023-04-19T03:21:38.374Z,10.35
2023-04-19T03:23:41.027Z,10.35
2023-04-19T03:25:43.644Z,10.37
2023-04-19T03:27:48.177Z,10.39
2023-04-19T03:29:50.865Z,10.36
2023-04-19T03:31:53.551Z,10.40
2023-04-19T03:33:56.125Z,10.38
2023-04-19T03:35:58.905Z,10.45
2023-04-19T03:38:01.503Z,10.46
2023-04-19T03:40:04.618Z,10.49
2023-04-19T03:42:08.004Z,10.51
2023-04-19T03:44:10.561Z,10.58
2023-04-19T03:46:13.353Z,10.62
2023-04-19T03:48:16.011Z,10.71
2023-04-19T03:50:18.727Z,10.77
2023-04-19T03:52:21.462Z,10.88
2023-04-19T03:54:24.160Z,10.99
2023-04-19T03:56:26.787Z,11.11
2023-04-19T03:58:29.354Z,11.29
2023-04-19T04:00:32.131Z,11.36
2023-04-19T04:02:38.453Z,11.49
2023-04-19T04:04:41.482Z,11.64
2023-04-19T04:06:44.476Z,11.78
2023-04-19T04:08:47.038Z,11.90
2023-04-19T04:10:49.660Z,12.04
2023-04-19T04:12:52.365Z,12.11
2023-04-19T04:14:55.011Z,12.22
2023-04-19T04:16:57.594Z,12.35
2023-04-19T04:19:00.341Z,12.47
2023-04-19T04:21:02.967Z,12.61
2023-04-19T04:23:05.483Z,12.68
2023-04-19T04:25:08.449Z,12.83
2023-04-19T04:27:11.441Z,12.86
2023-04-19T04:29:14.431Z,12.93
2023-04-19T04:31:18.429Z,12.99
2023-04-19T04:33:21.105Z,13.11
2023-04-19T04:35:23.890Z,13.16
2023-04-19T04:37:26.454Z,13.21
2023-04-19T04:39:29.879Z,13.24
2023-04-19T04:41:32.572Z,13.22
2023-04-19T04:43:35.208Z,13.15
2023-04-19T04:45:38.033Z,13.18
2023-04-19T04:47:40.942Z,13.24
2023-04-19T04:49:43.642Z,13.23
2023-04-19T04:51:46.281Z,13.22
2023-04-19T04:53:48.842Z,13.18
2023-04-19T04:55:52.979Z,13.25
2023-04-19T04:57:55.639Z,13.28
2023-04-19T04:59:58.281Z,13.25
2023-04-19T05:02:00.912Z,13.18
2023-04-19T05:04:03.654Z,13.22
2023-04-19T05:06:06.750Z,13.24
2023-04-19T05:08:09.268Z,13.17
2023-04-19T05:10:11.825Z,13.15
2023-04-19T05:12:14.663Z,13.19
2023-04-19T05:14:17.487Z,13.16
2023-04-19T05:16:21.278Z,13.19
2023-04-19T05:18:24.411Z,13.13
2023-04-19T05:20:27.038Z,13.14
2023-04-19T05:22:29.639Z,13.20
2023-04-19T05:24:32.184Z,13.23
2023-04-19T05:26:34.848Z,13.23
2023-04-19T05:28:37.372Z,13.32
2023-04-19T05:30:40.183Z,13.41
2023-04-19T05:32:42.846Z,13.46
2023-04-19T05:34:45.399Z,13.56
2023-04-19T05:36:47.954Z,13.71
2023-04-19T05:38:50.716Z,13.81
2023-04-19T05:40:53.283Z,13.86
2023-04-19T05:42:55.919Z,13.86
2023-04-19T05:44:58.474Z,13.85
2023-04-19T05:47:01.400Z,13.87
2023-04-19T05:49:03.968Z,13.96
2023-04-19T05:51:06.923Z,13.98
2023-04-19T05:53:09.602Z,14.00
2023-04-19T05:55:12.226Z,14.07
2023-04-19T05:57:14.933Z,14.14
2023-04-19T05:59:17.565Z,14.19
2023-04-19T06:01:20.266Z,14.27
2023-04-19T06:03:23.063Z,14.29
2023-04-19T06:05:26.023Z,14.28
2023-04-19T06:07:32.873Z,14.32
2023-04-19T06:09:38.370Z,14.32
2023-04-19T06:11:50.120Z,14.34
2023-04-19T06:13:53.762Z,14.32
2023-04-19T06:15:56.711Z,14.41
2023-04-19T06:18:00.098Z,14.39
2023-04-19T06:20:06.462Z,14.43
2023-04-19T06:22:09.573Z,14.42
2023-04-19T06:24:12.359Z,14.46
2023-04-19T06:26:14.967Z,14.55
2023-04-19T06:28:17.674Z,14.63
2023-04-19T06:30:20.514Z,14.75
2023-04-19T06:32:23.369Z,14.92
2023-04-19T06:34:26.362Z,14.99
2023-04-19T06:36:29.594Z,14.99
2023-04-19T06:38:32.845Z,14.99
2023-04-19T06:40:35.650Z,15.06
2023-04-19T06:42:38.485Z,15.10
2023-04-19T06:44:41.209Z,15.19
2023-04-19T06:46:44.229Z,15.28
2023-04-19T06:48:47.616Z,15.35
2023-04-19T06:50:50.865Z,15.41
2023-04-19T06:52:53.846Z,15.52
2023-04-19T06:54:56.658Z,15.65
2023-04-19T06:56:59.254Z,15.76
2023-04-19T06:59:01.935Z,15.78
2023-04-19T07:01:05.396Z,15.76
2023-04-19T07:03:08.156Z,15.70
2023-04-19T07:05:12.980Z,15.70
2023-04-19T07:07:15.811Z,15.70
2023-04-19T07:09:18.683Z,15.77
2023-04-19T07:11:22.521Z,15.84
2023-04-19T07:13:25.677Z,15.82
2023-04-19T07:15:28.858Z,15.85
2023-04-19T07:17:32.245Z,15.87
2023-04-19T07:19:36.518Z,15.92
2023-04-19T07:21:40.256Z,15.96
2023-04-19T07:23:43.450Z,15.93
2023-04-19T07:25:47.088Z,15.93
2023-04-19T07:27:50.301Z,15.93
2023-04-19T07:29:54.429Z,16.03
2023-04-19T07:31:57.141Z,16.04
2023-04-19T07:34:00.064Z,16.14
2023-04-19T07:36:02.861Z,16.15
2023-04-19T07:38:05.499Z,16.27
2023-04-19T07:40:09.144Z,16.32
2023-04-19T07:42:12.071Z,16.36
2023-04-19T07:44:14.976Z,16.34
2023-04-19T07:46:18.785Z,16.37
2023-04-19T07:48:21.711Z,16.35
2023-04-19T07:50:27.152Z,16.47
2023-04-19T07:52:29.925Z,16.59
2023-04-19T07:54:32.626Z,16.69
2023-04-19T07:56:35.297Z,16.70
2023-04-19T07:58:42.270Z,16.63
2023-04-19T08:00:46.124Z,16.66
2023-04-19T08:02:49.916Z,16.67
2023-04-19T08:04:53.650Z,16.71
2023-04-19T08:06:56.777Z,16.80
2023-04-19T08:08:59.766Z,16.95
2023-04-19T08:11:02.718Z,17.08
2023-04-19T08:13:06.746Z,17.26
2023-04-19T08:15:32.854Z,17.39
2023-04-19T08:19:38.087Z,17.51
2023-04-19T08:21:41.778Z,17.48
2023-04-19T08:23:48.348Z,17.46
2023-04-19T08:25:52.237Z,17.56
2023-04-19T08:27:55.721Z,17.83
2023-04-19T08:29:58.869Z,18.13
2023-04-19T08:32:02.852Z,18.45
2023-04-19T08:34:05.674Z,18.69
2023-04-19T08:36:08.988Z,18.76
2023-04-19T08:38:12.303Z,18.65
2023-04-19T08:40:17.518Z,18.42
2023-04-19T08:42:33.233Z,18.32
2023-04-19T08:44:49.240Z,18.32
2023-04-19T08:47:02.573Z,18.30
2023-04-19T08:49:06.293Z,18.32
2023-04-19T08:51:10.182Z,18.26
2023-04-19T08:55:19.129Z,18.25
2023-04-19T08:57:22.970Z,18.34
2023-04-19T08:59:25.776Z,18.35
2023-04-19T09:01:34.759Z,18.43
2023-04-19T09:04:00.387Z,18.46
2023-04-19T09:06:08.545Z,18.48
2023-04-19T09:08:30.250Z,18.46
2023-04-19T09:10:33.395Z,18.56
2023-04-19T09:12:37.739Z,18.57
2023-04-19T09:14:59.775Z,18.61
2023-04-19T09:17:17.034Z,18.70
2023-04-19T09:19:24.933Z,18.81
2023-04-19T09:21:30.834Z,18.92
2023-04-19T09:23:33.479Z,18.97
2023-04-19T09:25:52.891Z,19.11
2023-04-19T09:28:15.157Z,19.08
2023-04-19T09:30:31.422Z,19.20
2023-04-19T09:32:48.001Z,19.34
2023-04-19T09:34:55.636Z,19.31
2023-04-19T09:37:11.046Z,19.22
2023-04-19T09:39:33.019Z,19.04
2023-04-19T09:41:39.025Z,18.94
2023-04-19T09:45:48.010Z,19.04
2023-04-19T09:48:05.966Z,19.13
2023-04-19T09:52:16.104Z,19.20
2023-04-19T09:54:21.153Z,19.15
2023-04-19T09:56:23.778Z,19.16
2023-04-19T09:58:34.343Z,19.21
2023-04-19T10:00:50.023Z,19.35
2023-04-19T10:02:58.723Z,19.28
2023-04-19T10:05:19.658Z,19.34
2023-04-19T10:07:30.498Z,19.22
2023-04-19T10:09:42.636Z,19.17
2023-04-19T10:12:02.097Z,19.24
2023-04-19T10:14:15.451Z,19.12
2023-04-19T10:16:20.172Z,19.09
2023-04-19T10:18:23.811Z,19.07
2023-04-19T10:20:53.126Z,18.83
2023-04-19T10:22:56.394Z,18.55
2023-04-19T10:25:17.120Z,18.28
2023-04-19T10:27:25.860Z,18.10
2023-04-19T10:30:10.908Z,17.92
2023-04-19T10:32:13.954Z,17.82
2023-04-19T10:34:42.675Z,17.68
2023-04-19T10:36:45.295Z,17.81
2023-04-19T10:38:49.885Z,18.11
2023-04-19T10:40:52.966Z,18.38
2023-04-19T10:43:11.089Z,18.36
2023-04-19T10:45:33.596Z,18.14
2023-04-19T10:47:44.628Z,17.91
2023-04-19T10:49:47.296Z,17.84
2023-04-19T10:51:54.982Z,17.75
2023-04-19T10:54:08.049Z,18.08
2023-04-19T10:56:11.162Z,18.54
2023-04-19T10:58:13.758Z,18.96
2023-04-19T11:00:22.348Z,19.37
2023-04-19T11:02:25.307Z,19.72
2023-04-19T11:04:31.310Z,19.85
2023-04-19T11:06:54.361Z,19.75
2023-04-19T11:08:57.993Z,19.80
2023-04-19T11:11:00.621Z,20.04
2023-04-19T11:13:03.266Z,20.38
2023-04-19T11:15:06.948Z,20.73
2023-04-19T11:17:18.981Z,20.71
2023-04-19T11:19:21.720Z,20.61
2023-04-19T11:21:24.618Z,20.68
2023-04-19T11:23:27.736Z,21.02
2023-04-19T11:25:31.839Z,21.35
2023-04-19T11:27:34.999Z,21.72
2023-04-19T11:29:37.584Z,21.97
2023-04-19T11:31:40.472Z,22.20
2023-04-19T11:33:44.280Z,22.13
2023-04-19T11:35:46.857Z,22.16
2023-04-19T11:37:49.709Z,22.19
2023-04-19T11:39:52.249Z,21.80
2023-04-19T11:41:54.848Z,21.47
2023-04-19T11:43:57.427Z,21.51
2023-04-19T11:46:10.699Z,21.56
2023-04-19T11:48:16.468Z,21.28
2023-04-19T11:50:31.395Z,21.12
2023-04-19T11:52:35.789Z,20.86
2023-04-19T11:54:40.188Z,20.56
2023-04-19T11:57:09.456Z,20.37
2023-04-19T11:59:12.094Z,20.29
2023-04-19T12:01:16.723Z,20.33
2023-04-19T12:03:27.119Z,20.65
2023-04-19T12:05:30.652Z,20.96
2023-04-19T12:07:33.475Z,21.05
2023-04-19T12:09:37.142Z,21.13
2023-04-19T12:11:50.346Z,21.26
2023-04-19T12:14:13.318Z,21.47
2023-04-19T12:16:28.278Z,21.61
2023-04-19T12:18:49.093Z,21.67
2023-04-19T12:20:53.574Z,21.77
2023-04-19T12:22:56.406Z,21.74
2023-04-19T12:24:59.381Z,21.50
2023-04-19T12:27:03.035Z,21.46
2023-04-19T12:29:06.468Z,21.55
2023-04-19T12:31:09.380Z,21.69
2023-04-19T12:33:12.482Z,21.69
2023-04-19T12:35:15.095Z,21.73
2023-04-19T12:37:17.666Z,21.94
2023-04-19T12:39:20.326Z,22.16
2023-04-19T12:41:22.848Z,22.33
2023-04-19T12:43:25.585Z,22.37
2023-04-19T12:45:28.221Z,22.46
2023-04-19T12:47:30.899Z,22.60
2023-04-19T12:49:34.316Z,22.68
2023-04-19T12:51:36.861Z,22.91
2023-04-19T12:53:42.031Z,22.93
2023-04-19T12:55:47.642Z,22.90
2023-04-19T12:57:50.243Z,22.90
2023-04-19T12:59:53.013Z,23.14
2023-04-19T13:01:56.760Z,23.19
2023-04-19T13:03:59.949Z,23.26
2023-04-19T13:06:03.770Z,23.39
2023-04-19T13:08:06.789Z,23.28
2023-04-19T13:10:09.781Z,23.19
2023-04-19T13:12:12.651Z,23.02
2023-04-19T13:14:15.341Z,22.93
2023-04-19T13:16:18.422Z,23.10
2023-04-19T13:18:22.456Z,23.16
2023-04-19T13:20:25.069Z,22.99
2023-04-19T13:22:27.672Z,22.73
2023-04-19T13:24:30.519Z,22.24
2023-04-19T13:26:34.510Z,21.73
2023-04-19T13:28:37.297Z,21.45
2023-04-19T13:30:39.968Z,21.25
2023-04-19T13:32:42.574Z,21.22
2023-04-19T13:34:45.162Z,21.50
2023-04-19T13:36:47.859Z,21.89
2023-04-19T13:38:50.403Z,22.34
2023-04-19T13:40:53.104Z,22.27
2023-04-19T13:42:56.958Z,21.95
2023-04-19T13:44:59.506Z,21.68
2023-04-19T13:47:02.245Z,21.94
2023-04-19T13:49:04.927Z,22.09
2023-04-19T13:51:08.539Z,22.27
2023-04-19T13:53:11.164Z,22.44
2023-04-19T13:55:13.804Z,22.61
2023-04-19T13:57:16.383Z,22.69
2023-04-19T13:59:19.349Z,22.90
2023-04-19T14:01:22.220Z,22.94
2023-04-19T14:03:25.323Z,22.99
2023-04-19T14:05:27.975Z,23.02
2023-04-19T14:07:30.861Z,22.99
2023-04-19T14:09:33.438Z,22.65
2023-04-19T14:11:37.908Z,22.02
2023-04-19T14:13:41.208Z,21.57
2023-04-19T14:15:43.776Z,21.24
2023-04-19T14:17:47.301Z,21.26
2023-04-19T14:19:50.081Z,21.61
2023-04-19T14:21:52.671Z,21.62
2023-04-19T14:23:55.669Z,21.34
2023-04-19T14:25:58.346Z,21.01
2023-04-19T14:28:00.938Z,20.61
2023-04-19T14:30:03.865Z,20.41
2023-04-19T14:32:24.043Z,20.44
2023-04-19T14:34:28.552Z,20.54
2023-04-19T14:36:31.479Z,20.34
2023-04-19T14:38:35.351Z,20.08
2023-04-19T14:40:37.926Z,19.83
2023-04-19T14:42:40.709Z,19.58
2023-04-19T14:44:43.980Z,19.31
2023-04-19T14:46:46.639Z,19.09
2023-04-19T14:48:49.177Z,18.87
2023-04-19T14:50:52.005Z,18.66
2023-04-19T14:52:54.879Z,18.40
2023-04-19T14:54:58.122Z,18.23
2023-04-19T14:57:01.621Z,17.97
2023-04-19T14:59:08.085Z,17.84
2023-04-19T15:01:14.424Z,17.68
2023-04-19T15:03:17.802Z,17.59
2023-04-19T15:05:23.468Z,17.45
2023-04-19T15:07:26.540Z,17.30
2023-04-19T15:09:29.330Z,17.18
2023-04-19T15:11:32.004Z,17.10
2023-04-19T15:13:35.653Z,16.99
2023-04-19T15:15:38.362Z,16.90
2023-04-19T15:17:41.360Z,16.78
2023-04-19T15:19:47.201Z,16.64
2023-04-19T15:21:49.967Z,16.51
2023-04-19T15:23:52.702Z,16.42
2023-04-19T15:25:56.376Z,16.20
2023-04-19T15:27:58.973Z,16.30
2023-04-19T15:30:01.635Z,16.22
2023-04-19T15:32:08.318Z,16.12
2023-04-19T15:34:10.923Z,16.06
2023-04-19T15:36:13.680Z,16.04
2023-04-19T15:38:16.297Z,16.00
2023-04-19T15:40:19.070Z,16.02
2023-04-19T15:42:22.211Z,16.02
2023-04-19T15:44:24.955Z,15.98
2023-04-19T15:46:27.510Z,15.89
2023-04-19T15:48:30.223Z,15.76
2023-04-19T15:50:36.230Z,15.69
2023-04-19T15:52:38.808Z,15.55
2023-04-19T15:54:41.355Z,15.47
2023-04-19T15:56:44.025Z,15.34
2023-04-19T15:58:46.708Z,15.14
2023-04-19T16:00:49.364Z,15.06
2023-04-19T16:02:52.300Z,14.94
2023-04-19T16:04:55.163Z,14.79
2023-04-19T16:06:57.988Z,14.63
2023-04-19T16:09:00.848Z,14.47
2023-04-19T16:11:06.155Z,14.37
2023-04-19T16:13:08.951Z,14.27
2023-04-19T16:15:12.071Z,14.15
2023-04-19T16:17:14.622Z,13.99
2023-04-19T16:19:17.406Z,13.80
2023-04-19T16:21:20.207Z,13.71
2023-04-19T16:23:24.342Z,13.58
2023-04-19T16:25:27.040Z,13.48
2023-04-19T16:27:29.661Z,13.40
2023-04-19T16:29:32.233Z,13.31
2023-04-19T16:31:35.195Z,13.22
2023-04-19T16:33:37.811Z,13.16
2023-04-19T16:35:40.405Z,13.06
2023-04-19T16:37:43.146Z,13.00
2023-04-19T16:39:46.311Z,12.93
2023-04-19T16:41:48.984Z,12.87
2023-04-19T16:43:51.501Z,12.82
2023-04-19T16:45:54.100Z,12.71
2023-04-19T16:47:56.773Z,12.67
2023-04-19T16:50:00.588Z,12.58
2023-04-19T16:52:03.280Z,12.50
2023-04-19T16:54:05.883Z,12.48
2023-04-19T16:56:08.490Z,12.44
2023-04-19T16:58:11.256Z,12.35
2023-04-19T17:00:14.271Z,12.35
2023-04-19T17:02:17.308Z,12.32
2023-04-19T17:04:20.412Z,12.32
2023-04-19T17:06:23.107Z,12.24
2023-04-19T17:08:26.648Z,12.28
2023-04-19T17:10:29.330Z,12.27
2023-04-19T17:12:32.155Z,12.23
2023-04-19T17:14:35.555Z,12.21
2023-04-19T17:16:38.446Z,12.17
2023-04-19T17:18:41.105Z,12.16
2023-04-19T17:20:44.020Z,12.15
2023-04-19T17:22:46.753Z,12.12
2023-04-19T17:24:49.788Z,12.10
2023-04-19T17:26:52.399Z,12.08
2023-04-19T17:28:55.094Z,12.05
2023-04-19T17:30:57.694Z,12.08
2023-04-19T17:33:00.407Z,12.09
2023-04-19T17:35:04.596Z,12.08
2023-04-19T17:37:07.536Z,12.04
2023-04-19T17:39:10.172Z,12.03
2023-04-19T17:41:16.483Z,11.99
2023-04-19T17:43:21.025Z,11.99
2023-04-19T17:45:25.232Z,11.98
2023-04-19T17:47:27.941Z,11.93
2023-04-19T17:49:30.640Z,11.91
2023-04-19T17:51:33.376Z,11.84
2023-04-19T17:53:36.040Z,11.85
2023-04-19T17:55:38.627Z,11.84
2023-04-19T17:57:41.412Z,11.82
2023-04-19T17:59:44.397Z,11.78
2023-04-19T18:01:47.147Z,11.75
2023-04-19T18:03:50.873Z,11.71
2023-04-19T18:05:54.898Z,11.67
2023-04-19T18:07:57.950Z,11.61
2023-04-19T18:10:00.645Z,11.56
2023-04-19T18:12:07.784Z,11.51
2023-04-19T18:14:20.584Z,11.47
2023-04-19T18:16:26.301Z,11.40
2023-04-19T18:18:29.149Z,11.34
2023-04-19T18:20:31.777Z,11.33
2023-04-19T18:22:34.492Z,11.28
2023-04-19T18:24:38.348Z,11.25
2023-04-19T18:26:43.285Z,11.24
2023-04-19T18:28:46.236Z,11.19
2023-04-19T18:30:48.882Z,11.22
2023-04-19T18:32:51.745Z,11.21
2023-04-19T18:34:54.768Z,11.21
2023-04-19T18:37:02.071Z,11.22
2023-04-19T18:39:05.004Z,11.21
2023-04-19T18:41:07.725Z,11.23
2023-04-19T18:43:10.702Z,11.21
2023-04-19T18:45:13.513Z,11.18
2023-04-19T18:47:16.354Z,11.10
2023-04-19T18:49:19.395Z,11.16
2023-04-19T18:51:22.188Z,11.15
2023-04-19T18:53:29.517Z,11.14
2023-04-19T18:55:32.279Z,11.10
2023-04-19T18:57:35.267Z,11.08
2023-04-19T18:59:38.522Z,11.10
2023-04-19T19:01:42.030Z,11.08
2023-04-19T19:05:54.723Z,11.06
2023-04-19T19:07:57.935Z,10.99
2023-04-19T19:10:03.668Z,10.97
2023-04-19T19:12:13.957Z,10.93
2023-04-19T19:14:18.301Z,10.90
2023-04-19T19:16:20.989Z,10.87
2023-04-19T19:18:23.818Z,10.80
2023-04-19T19:20:26.742Z,10.78
2023-04-19T19:22:29.437Z,10.74
2023-04-19T19:24:32.201Z,10.70
2023-04-19T19:26:34.949Z,10.65
2023-04-19T19:28:37.607Z,10.60
2023-04-19T19:30:42.958Z,10.56
2023-04-19T19:32:45.814Z,10.49
2023-04-19T19:36:55.453Z,10.39
2023-04-19T19:38:58.033Z,10.33
2023-04-19T19:41:47.218Z,10.31
2023-04-19T19:43:23.363Z,10.13
2023-04-19T19:45:31.978Z,10.21
2023-04-19T19:47:35.735Z,10.13
2023-04-19T19:51:57.501Z,10.03
2023-04-19T19:54:08.780Z,9.91
2023-04-19T19:56:19.061Z,9.88
2023-04-19T19:58:46.255Z,9.81
2023-04-19T20:00:50.392Z,9.79
2023-04-19T20:02:56.662Z,9.74
2023-04-19T20:04:59.878Z,9.71
2023-04-19T20:09:08.225Z,9.63
2023-04-19T20:11:11.135Z,9.61
2023-04-19T20:13:13.682Z,9.60
2023-04-19T20:15:16.444Z,9.55
2023-04-19T20:17:19.047Z,9.51
2023-04-19T20:19:21.742Z,9.48
2023-04-19T20:21:24.364Z,9.46
2023-04-19T20:23:27.209Z,9.43
2023-04-19T20:25:32.588Z,9.38
2023-04-19T20:27:35.286Z,9.38
2023-04-19T20:29:38.350Z,9.36
2023-04-19T20:31:42.613Z,9.30
2023-04-19T20:33:47.975Z,9.25
2023-04-19T20:35:50.687Z,9.21
2023-04-19T20:37:54.703Z,9.17
2023-04-19T20:39:58.702Z,9.14
2023-04-19T20:42:01.586Z,9.07
2023-04-19T20:44:05.170Z,9.05
2023-04-19T20:46:08.552Z,9.04
2023-04-19T20:48:11.253Z,9.00
2023-04-19T20:50:13.903Z,9.01
2023-04-19T20:52:16.479Z,9.02
2023-04-19T20:54:20.092Z,9.02
2023-04-19T20:56:23.225Z,9.01
2023-04-19T20:58:25.973Z,8.98
2023-04-19T21:00:28.862Z,9.00
2023-04-19T21:02:31.800Z,9.01
2023-04-19T21:04:34.984Z,9.00
2023-04-19T21:06:37.712Z,8.96
2023-04-19T21:08:40.377Z,8.87
2023-04-19T21:10:43.067Z,8.88
2023-04-19T21:12:45.919Z,8.87
2023-04-19T21:14:50.040Z,8.86
2023-04-19T21:16:52.628Z,8.80
2023-04-19T21:18:55.368Z,8.79
2023-04-19T21:20:58.582Z,8.75
2023-04-19T21:23:02.144Z,8.72
2023-04-19T21:25:05.537Z,8.73
2023-04-19T21:27:08.115Z,8.71
2023-04-19T21:29:11.701Z,8.68
2023-04-19T21:31:14.351Z,8.64
2023-04-19T21:33:18.276Z,8.58
2023-04-19T21:35:21.053Z,8.53
2023-04-19T21:37:23.747Z,8.51
2023-04-19T21:39:26.380Z,8.45
2023-04-19T21:41:29.065Z,8.43
2023-04-19T21:43:31.771Z,8.36
2023-04-19T21:45:34.467Z,8.32
2023-04-19T21:47:37.264Z,8.26
2023-04-19T21:49:41.097Z,8.25
2023-04-19T21:51:43.733Z,8.22
2023-04-19T21:53:46.335Z,8.21
2023-04-19T21:55:52.878Z,8.13
2023-04-19T21:57:55.531Z,8.15
2023-04-19T21:59:58.398Z,8.11
2023-04-19T22:02:01.257Z,8.08
2023-04-19T22:04:04.762Z,8.08
2023-04-19T22:06:08.641Z,8.08
2023-04-19T22:08:12.170Z,8.05
2023-04-19T22:10:14.827Z,8.04
2023-04-19T22:12:17.470Z,7.99
2023-04-19T22:14:20.213Z,7.98
2023-04-19T22:16:22.871Z,7.97
2023-04-19T22:18:25.568Z,8.01
2023-04-19T22:20:28.180Z,8.00
2023-04-19T22:22:30.850Z,7.97
2023-04-19T22:26:36.422Z,8.00
2023-04-19T22:28:39.120Z,7.99
2023-04-19T22:30:41.937Z,7.98
2023-04-19T22:32:44.695Z,7.98
2023-04-19T22:34:47.250Z,7.97
2023-04-19T22:36:49.995Z,7.96
2023-04-19T22:38:52.621Z,7.95
2023-04-19T22:40:55.208Z,7.94
2023-04-19T22:42:57.830Z,7.93
2023-04-19T22:45:00.463Z,7.89
2023-04-19T22:47:03.660Z,7.90
2023-04-19T22:49:06.450Z,7.85
2023-04-19T22:51:09.641Z,7.76
2023-04-19T22:53:13.238Z,7.83
2023-04-19T22:55:15.926Z,7.82
2023-04-19T22:57:21.447Z,7.82
2023-04-19T22:59:24.038Z,7.80
2023-04-19T23:01:26.786Z,7.82
2023-04-19T23:03:29.487Z,7.82
2023-04-19T23:05:33.681Z,7.81
2023-04-19T23:07:36.406Z,7.80
2023-04-19T23:09:39.492Z,7.81
2023-04-19T23:11:42.623Z,7.78
2023-04-19T23:13:47.531Z,7.76
2023-04-19T23:15:50.460Z,7.70
2023-04-19T23:17:53.107Z,7.69
2023-04-19T23:19:55.783Z,7.67
2023-04-19T23:21:58.402Z,7.65
2023-04-19T23:24:01.121Z,7.61
2023-04-19T23:26:03.873Z,7.55
2023-04-19T23:28:06.661Z,7.51
2023-04-19T23:30:09.624Z,7.52
2023-04-19T23:32:12.298Z,7.49
2023-04-19T23:34:15.509Z,7.48
2023-04-19T23:36:18.246Z,7.45
2023-04-19T23:38:21.046Z,7.41
2023-04-19T23:40:23.695Z,7.38
2023-04-19T23:42:26.318Z,7.36
2023-04-19T23:44:30.106Z,7.31
2023-04-19T23:46:32.825Z,7.26
2023-04-19T23:48:35.462Z,7.25
2023-04-19T23:50:38.011Z,7.19
2023-04-19T23:52:40.956Z,7.17
2023-04-19T23:54:43.643Z,7.09
2023-04-19T23:56:46.975Z,7.07
2023-04-19T23:58:49.597Z,7.02
